Latest Weather Observations for Paraburdoo

IDW60801

Issued at 5:35 pm WST Friday 29 August 2014 (issued every 30 minutes, with the page automatically refreshed every 10 minutes)

About weather observations | Map of weather stations | Latest weather observations for WA | Other Formats
Station Details ID: 007185 Name: PARABURDOO AERO Lat: -23.17 Lon: 117.75 Height: 423.7 m
Data from the previous 72 hours. | See also: Recent months at Paraburdoo
Date/Time
WST
Temp
°C
App
Temp
°C
Dew
Point
Rel
Hum
%
Delta-T
°C
Wind Press
QNH
hPa
Press
MSL
hPa
Rain
since 9 am
mm
Dir
 
Spd
km/h
Gust
km/h
Spd
kts
Gust
kts
29/05:30pm 30.2 24.6 -11.3 6 16.6 NW 13 19 7 10 1016.6 - 0.0
29/05:00pm 30.9 24.9 -10.8 6 17.0 WNW 15 20 8 11 1016.5 - 0.0
29/04:30pm 31.4 25.5 -10.4 6 17.2 WNW 15 24 8 13 1016.4 - 0.0
29/04:00pm 31.7 25.8 -10.2 6 17.4 NNW 15 20 8 11 1016.5 - 0.0
29/03:30pm 31.4 24.7 -10.4 6 17.2 NNW 19 28 10 15 1016.5 - 0.0
29/03:00pm 30.6 26.1 -11.0 6 16.8 SE 7 13 4 7 1016.5 1015.1 0.0
29/02:30pm 31.5 26.7 -10.4 6 17.3 NNE 9 19 5 10 1016.7 - 0.0
29/02:00pm 31.4 25.5 -10.4 6 17.2 NW 15 24 8 13 1016.9 - 0.0
29/01:30pm 31.0 24.8 -8.8 7 16.8 N 17 24 9 13 1017.2 - 0.0
29/01:00pm 30.7 26.0 -9.0 7 16.7 NW 9 20 5 11 1017.5 - 0.0
29/12:30pm 31.2 24.6 -8.6 7 16.9 N 19 26 10 14 1018.1 - 0.0
29/12:00pm 30.4 24.6 -9.2 7 16.5 NNW 15 26 8 14 1018.5 1017.2 0.0
29/11:30am 28.6 24.6 -6.0 10 15.0 ENE 7 11 4 6 1019.0 - 0.0
29/11:00am 28.1 24.0 -6.3 10 14.8 ENE 7 11 4 6 1019.5 - 0.0
29/10:30am 27.4 23.7 -4.5 12 14.1 WNW 6 9 3 5 1020.0 - 0.0
29/10:00am 26.3 22.3 -5.3 12 13.6 NNW 7 11 4 6 1020.4 - 0.0
29/09:30am 25.6 21.7 -4.8 13 13.1 NE 7 11 4 6 1020.4 - 0.0
29/09:00am 23.9 19.2 -5.2 14 12.3 NE 11 15 6 8 1020.5 1019.2 0.0
29/08:30am 22.1 16.2 -5.7 15 11.4 NE 17 20 9 11 1020.3 - 0.0
29/08:00am 20.0 14.5 -5.8 17 10.4 NE 15 17 8 9 1019.9 - 0.0
29/07:30am 17.8 12.7 -5.4 20 9.2 NE 13 15 7 8 1019.6 - 0.0
29/07:00am 15.0 9.4 -5.9 23 8.0 NE 15 17 8 9 1019.4 - 0.0
29/06:30am 12.5 7.3 -6.0 27 6.8 ENE 13 19 7 10 1019.2 - 0.0
29/06:00am 12.0 7.5 -6.4 27 6.7 ENE 9 11 5 6 1019.0 1017.6 0.0
29/05:30am 11.5 6.6 -6.8 27 6.6 ENE 11 13 6 7 1018.6 - 0.0
29/05:00am 13.0 7.8 -6.5 25 7.2 NE 13 17 7 9 1018.4 - 0.0
29/04:30am 11.8 7.2 -7.6 25 6.8 ENE 9 11 5 6 1018.5 - 0.0
29/04:00am 12.6 7.7 -7.4 24 7.2 ENE 11 13 6 7 1018.4 - 0.0
29/03:30am 12.6 7.6 -8.0 23 7.3 NE 11 15 6 8 1018.4 - 0.0
29/03:00am 13.2 8.2 -8.6 21 7.6 NE 11 15 6 8 1018.4 1017.1 0.0
29/02:30am 13.3 8.6 -9.2 20 7.8 E 9 11 5 6 1018.8 - 0.0
29/02:00am 14.4 9.4 -8.2 20 8.1 E 11 13 6 7 1019.0 - 0.0
29/01:30am 14.5 10.2 -8.8 19 8.3 E 7 11 4 6 1019.2 - 0.0
29/01:00am 14.6 10.3 -8.7 19 8.3 E 7 9 4 5 1019.3 - 0.0
29/12:30am 14.9 11.1 -9.2 18 8.5 ENE 4 9 2 5 1019.2 - 0.0
29/12:00am 15.9 11.2 -9.1 17 9.0 NNE 9 11 5 6 1019.2 1017.8 0.0
 
Date/Time
WST
Temp
°C
App
Temp
°C
Dew
Point
Rel
Hum
%
Delta-T
°C
Wind Press
QNH
hPa
Press
MSL
hPa
Rain
since 9 am
mm
Dir
 
Spd
km/h
Gust
km/h
Spd
kts
Gust
kts
28/11:30pm 17.6 11.9 -7.7 17 9.5 NNE 15 15 8 8 1019.1 - 0.0
28/11:00pm 16.6 12.0 -8.5 17 9.2 ENE 9 11 5 6 1019.2 - 0.0
28/10:30pm 18.0 12.6 -8.2 16 9.8 ENE 13 13 7 7 1019.3 - 0.0
28/10:00pm 17.0 12.3 -9.0 16 9.5 E 9 9 5 5 1019.3 - 0.0
28/09:30pm 18.4 13.7 -8.7 15 10.1 E 9 11 5 6 1019.2 - 0.0
28/09:00pm 18.3 13.6 -9.6 14 10.2 E 9 11 5 6 1019.0 1017.6 0.0
28/08:30pm 20.0 16.6 -9.2 13 11.0 NNE 2 7 1 4 1018.8 - 0.0
28/08:00pm 22.0 17.9 -8.7 12 11.9 WNW 6 9 3 5 1018.4 - 0.0
28/07:30pm 23.2 20.1 -10.1 10 12.7 CALM 0 7 0 4 1018.0 - 0.0
28/07:00pm 23.9 19.6 -9.5 10 13.0 NNE 7 11 4 6 1017.6 - 0.0
28/06:30pm 25.1 20.9 -10.0 9 13.7 SE 6 9 3 5 1017.2 - 0.0
28/06:00pm 28.1 24.0 -9.2 8 15.2 SSE 6 11 3 6 1017.1 1015.7 0.0
28/05:30pm 29.3 24.9 -10.0 7 16.0 E 7 13 4 7 1016.8 - 0.0
28/05:00pm 30.3 26.5 -9.3 7 16.5 WNW 4 9 2 5 1016.6 - 0.0
28/04:30pm 30.0 25.8 -9.5 7 16.3 NW 6 17 3 9 1016.3 - 0.0
28/04:00pm 30.5 25.4 -9.1 7 16.6 E 11 17 6 9 1016.1 - 0.0
28/03:30pm 30.5 25.4 -9.1 7 16.6 WNW 11 19 6 10 1016.1 - 0.0
28/03:00pm 30.8 26.1 -8.9 7 16.7 W 9 17 5 9 1016.5 1015.1 0.0
28/02:30pm 29.9 24.5 -7.9 8 16.0 NE 13 20 7 11 1016.8 - 0.0
28/02:00pm 29.6 24.2 -8.1 8 15.9 ESE 13 24 7 13 1017.1 - 0.0
28/01:30pm 30.3 25.0 -7.6 8 16.2 E 13 22 7 12 1017.4 - 0.0
28/01:00pm 29.8 24.8 -8.0 8 16.0 S 11 17 6 9 1018.0 - 0.0
28/12:30pm 30.1 23.6 -7.7 8 16.1 NE 19 26 10 14 1018.3 - 0.0
28/12:00pm 29.3 24.7 -8.3 8 15.7 N 9 15 5 8 1018.9 1017.5 0.0
28/11:30am 28.9 22.2 -8.6 8 15.6 NNE 20 32 11 17 1019.4 - 0.0
28/11:00am 28.8 21.8 -7.2 9 15.3 NE 22 32 12 17 1019.8 - 0.0
28/10:30am 27.9 21.2 -7.9 9 14.9 NNE 20 32 11 17 1020.2 - 0.0
28/10:00am 27.4 22.8 -8.2 9 14.7 N 9 20 5 11 1020.4 - 0.0
28/09:30am 26.2 22.4 -5.4 12 13.6 ENE 6 9 3 5 1020.7 - 0.0
28/09:00am 24.2 19.4 -5.9 13 12.5 ENE 11 15 6 8 1020.5 1019.2 0.0
28/08:30am 22.3 16.8 -5.6 15 11.5 NE 15 19 8 10 1020.3 - 0.0
28/08:00am 20.2 13.9 -5.6 17 10.4 NE 19 22 10 12 1019.8 - 0.0
28/07:30am 17.2 11.0 -5.3 21 8.9 NE 19 24 10 13 1019.8 - 0.0
28/07:00am 14.0 9.2 -5.7 25 7.5 ENE 11 13 6 7 1019.7 - 0.0
28/06:30am 12.2 6.6 -6.2 27 6.7 NE 15 15 8 8 1019.3 - 0.0
28/06:00am 11.3 6.5 -6.5 28 6.4 ENE 11 11 6 6 1019.2 1017.8 0.0
28/05:30am 11.5 6.7 -6.3 28 6.5 ENE 11 15 6 8 1019.0 - 0.0
28/05:00am 11.5 6.2 -6.8 27 6.6 ENE 13 13 7 7 1018.9 - 0.0
28/04:30am 12.5 8.0 -6.5 26 6.9 E 9 11 5 6 1018.8 - 0.0
28/04:00am 13.8 9.0 -5.9 25 7.4 E 11 13 6 7 1018.6 - 0.0
28/03:30am 13.5 9.0 -6.6 24 7.4 E 9 11 5 6 1018.5 - 0.0
28/03:00am 13.6 9.1 -6.6 24 7.4 E 9 11 5 6 1018.6 1017.3 0.0
28/02:30am 16.4 12.1 -5.3 22 8.5 NNE 9 13 5 7 1018.4 - 0.0
28/02:00am 14.8 10.7 -6.7 22 8.0 N 7 15 4 8 1018.4 - 0.0
28/01:30am 14.6 11.8 -6.8 22 8.0 CALM 0 0 0 0 1018.2 - 0.0
28/01:00am 15.6 11.4 -7.2 20 8.5 ENE 7 13 4 7 1018.5 - 0.0
28/12:30am 16.2 11.3 -6.8 20 8.7 NE 11 13 6 7 1018.6 - 0.0
28/12:00am 16.4 11.5 -7.3 19 8.9 ENE 11 15 6 8 1018.8 1017.4 0.0
 
Date/Time
WST
Temp
°C
App
Temp
°C
Dew
Point
Rel
Hum
%
Delta-T
°C
Wind Press
QNH
hPa
Press
MSL
hPa
Rain
since 9 am
mm
Dir
 
Spd
km/h
Gust
km/h
Spd
kts
Gust
kts
27/11:30pm 16.8 11.9 -6.9 19 9.0 ENE 11 13 6 7 1018.8 - 0.0
27/11:00pm 17.1 13.1 -7.4 18 9.2 ENE 6 9 3 5 1019.0 - 0.0
27/10:30pm 18.5 14.4 -6.2 18 9.7 ENE 7 9 4 5 1019.1 - 0.0
27/10:00pm 18.0 13.1 -7.4 17 9.7 NE 11 13 6 7 1019.0 - 0.0
27/09:30pm 17.2 13.2 -8.0 17 9.4 E 6 11 3 6 1019.2 - 0.0
27/09:00pm 17.9 13.8 -9.1 15 9.9 NNW 6 6 3 3 1019.2 1017.8 0.0
27/08:30pm 19.5 15.3 -7.8 15 10.5 N 7 9 4 5 1019.2 - 0.0
27/08:00pm 21.2 16.9 -9.3 12 11.6 ENE 7 9 4 5 1018.8 - 0.0
27/07:30pm 21.5 16.8 -9.1 12 11.7 ENE 9 11 5 6 1018.4 - 0.0
27/07:00pm 23.2 18.1 -8.9 11 12.6 ENE 11 13 6 7 1017.9 - 0.0
27/06:30pm 25.7 20.7 -8.2 10 13.8 E 11 11 6 6 1017.5 - 0.0
27/06:00pm 27.4 22.4 -8.2 9 14.7 E 11 15 6 8 1017.2 1015.8 0.0
27/05:30pm 28.8 23.8 -8.7 8 15.5 ENE 11 13 6 7 1017.0 - 0.0
27/05:00pm 29.6 25.0 -8.1 8 15.9 ENE 9 13 5 7 1016.8 - 0.0
27/04:30pm 29.7 24.3 -8.0 8 16.0 ENE 13 19 7 10 1016.8 - 0.0
27/04:00pm 30.6 25.1 -9.1 7 16.6 N 13 20 7 11 1016.7 - 0.0
27/03:30pm 30.1 25.0 -9.4 7 16.4 E 11 20 6 11 1016.8 - 0.0
27/03:00pm 30.4 24.9 -9.2 7 16.5 WNW 13 22 7 12 1017.0 1015.6 0.0
27/02:30pm 30.3 24.4 -9.3 7 16.5 NNW 15 20 8 11 1017.2 - 0.0
27/02:00pm 29.7 25.0 -9.7 7 16.2 E 9 20 5 11 1017.3 - 0.0
27/01:30pm 29.9 24.0 -9.6 7 16.3 NNE 15 28 8 15 1017.8 - 0.0
27/01:00pm 29.1 24.5 -8.5 8 15.7 N 9 17 5 9 1018.1 - 0.0
27/12:30pm 28.9 23.5 -8.6 8 15.6 NE 13 20 7 11 1018.8 - 0.0
27/12:00pm 28.7 22.1 -8.8 8 15.5 NNE 19 30 10 16 1019.4 1018.0 0.0
27/11:30am 28.2 22.0 -9.1 8 15.3 NE 17 32 9 17 1019.6 - 0.0
27/11:00am 27.5 21.0 -8.2 9 14.8 NE 19 30 10 16 1020.1 - 0.0
27/10:30am 28.1 21.4 -7.7 9 15.0 NE 20 30 11 16 1020.5 - 0.0
27/10:00am 27.8 21.1 -7.9 9 14.9 NE 20 41 11 22 1020.8 - 0.0
27/09:30am 25.8 19.8 -6.9 11 13.6 NE 17 22 9 12 1020.9 - 0.0
27/09:00am 24.1 18.9 -6.0 13 12.5 NE 13 17 7 9 1021.1 1019.8 0.0
27/08:30am 22.6 18.3 -5.3 15 11.6 NE 9 13 5 7 1021.0 - 0.0
27/08:00am 19.6 15.9 -4.6 19 9.9 ENE 6 7 3 4 1020.9 - 0.0
27/07:30am 16.9 13.0 -4.3 23 8.5 E 7 9 4 5 1020.6 - 0.0
27/07:00am 13.2 10.2 -5.4 27 7.0 W 2 9 1 5 1020.2 - 0.0
27/06:30am 10.7 7.9 -6.6 29 6.2 CALM 0 0 0 0 1019.9 - 0.0
27/06:00am 13.4 9.6 -5.7 26 7.2 W 6 9 3 5 1019.6 1018.3 0.0
27/05:30am 14.7 9.9 -5.6 24 7.8 ENE 11 15 6 8 1019.2 - 0.0
27/05:00am 14.4 9.3 -5.3 25 7.6 E 13 17 7 9 1018.8 - 0.0
27/04:30am 14.0 10.0 -5.7 25 7.5 NE 7 11 4 6 1018.6 - 0.0
27/04:00am 14.8 12.2 -5.0 25 7.7 CALM 0 0 0 0 1018.5 - 0.0
27/03:30am 14.2 10.4 -5.5 25 7.5 E 6 7 3 4 1018.5 - 0.0
27/03:00am 14.5 10.5 -5.8 24 7.7 ENE 7 9 4 5 1018.4 1017.1 0.0
27/02:30am 15.2 11.1 -6.3 22 8.1 ENE 7 7 4 4 1018.5 - 0.0
27/02:00am 15.3 11.2 -6.9 21 8.3 NE 7 9 4 5 1018.6 - 0.0
27/01:30am 16.5 11.7 -6.5 20 8.8 ENE 11 13 6 7 1018.8 - 0.0
27/01:00am 16.3 11.8 -6.7 20 8.7 NE 9 9 5 5 1019.0 - 0.0
27/12:30am 16.4 11.5 -6.6 20 8.8 E 11 13 6 7 1019.3 - 0.0
27/12:00am 17.1 12.9 -7.4 18 9.2 ENE 7 11 4 6 1019.5 1018.2 0.0
 
Date/Time
WST
Temp
°C
App
Temp
°C
Dew
Point
Rel
Hum
%
Delta-T
°C
Wind Press
QNH
hPa
Press
MSL
hPa
Rain
since 9 am
mm
Dir
 
Spd
km/h
Gust
km/h
Spd
kts
Gust
kts
26/11:30pm 18.2 12.6 -6.5 18 9.6 ENE 15 17 8 9 1019.5 - 0.0
26/11:00pm 17.7 12.1 -6.9 18 9.4 NE 15 15 8 8 1019.5 - 0.0
26/10:30pm 18.6 13.3 -6.9 17 9.9 E 13 17 7 9 1019.6 - 0.0
26/10:00pm 18.1 13.2 -7.3 17 9.7 NE 11 13 6 7 1019.7 - 0.0
26/09:30pm 19.2 13.9 -7.2 16 10.2 NNE 13 15 7 8 1019.8 - 0.0
26/09:00pm 19.1 14.5 -8.1 15 10.3 NE 9 11 5 6 1019.7 1018.4 0.0
26/08:30pm 20.2 15.7 -7.2 15 10.7 ENE 9 11 5 6 1019.7 - 0.0
26/08:00pm 20.4 15.4 -8.0 14 11.0 ENE 11 15 6 8 1019.5 - 0.0
26/07:30pm 22.5 17.1 -8.3 12 12.1 E 13 15 7 8 1019.2 - 0.0
26/07:00pm 23.0 17.9 -9.0 11 12.5 E 11 13 6 7 1019.0 - 0.0
26/06:30pm 25.1 20.4 -8.6 10 13.5 E 9 11 5 6 1018.5 - 0.0
26/06:00pm 27.2 22.2 -8.4 9 14.6 E 11 17 6 9 1018.3 1017.0 0.0

Other Formats:

Comma delimited format used in spreadsheet applications
http://www.bom.gov.au/fwo/IDW60801/IDW60801.94316.axf

JavaScript Object Notation format (JSON) in row-major order
http://www.bom.gov.au/fwo/IDW60801/IDW60801.94316.json